Latest Weather Observations for Samuel Hill

IDQ60801

Issued at 5:05 pm EST Friday 31 October 2014 (issued every 30 minutes, with the page automatically refreshed every 10 minutes)

About weather observations | Map of weather stations | Latest weather observations for QLD | Other Formats
Station Details ID: 033308 Name: SAMUEL HILL AERO Lat: -22.74 Lon: 150.66 Height: 31.0 m
Data from the previous 72 hours. | See also: Recent months at Samuel Hill
Date/Time
EST
Temp
°C
App
Temp
°C
Dew
Point
Rel
Hum
%
Delta-T
°C
Wind Press
QNH
hPa
Press
MSL
hPa
Rain
since 9 am
mm
Dir
 
Spd
km/h
Gust
km/h
Spd
kts
Gust
kts
31/05:00pm 25.0 24.4 16.7 60 5.1 NNE 15 22 8 12 1013.8 1013.7 0.0
31/04:30pm 25.9 25.3 17.5 59 5.3 NE 17 22 9 12 1013.5 1013.4 0.0
31/04:00pm 26.8 26.1 17.3 56 6.0 NNE 17 26 9 14 1013.3 1013.2 0.0
31/03:30pm 27.3 27.1 17.5 55 6.2 NE 15 24 8 13 1013.5 1013.4 0.0
31/03:00pm 27.2 25.9 15.9 50 6.9 NE 17 22 9 12 1013.6 1013.5 0.0
31/02:30pm 27.9 26.7 16.2 49 7.2 NE 17 28 9 15 1013.7 1013.6 0.0
31/02:00pm 28.0 26.8 16.0 48 7.4 NNE 17 26 9 14 1013.8 1013.7 0.0
31/01:30pm 28.3 26.8 16.2 47 7.5 NE 19 28 10 15 1014.0 1013.9 0.0
31/01:00pm 28.6 27.8 16.2 47 7.7 NNE 15 22 8 12 1014.4 1014.3 0.0
31/12:30pm 28.6 27.8 16.2 47 7.7 NE 15 26 8 14 1014.9 1014.8 0.0
31/12:00pm 29.0 28.9 16.9 48 7.6 NNE 13 22 7 12 1015.1 1015.0 0.0
31/11:30am 28.3 27.4 15.9 47 7.6 N 15 24 8 13 1015.5 1015.4 0.0
31/11:00am 28.8 28.2 16.7 48 7.6 NNE 15 24 8 13 1015.7 1015.6 0.0
31/10:30am 27.8 27.7 17.0 51 6.8 NE 13 22 7 12 1016.1 1016.0 0.0
31/10:00am 27.6 27.6 16.2 49 7.0 NE 11 20 6 11 1016.0 1015.9 0.0
31/09:30am 27.0 26.6 17.2 55 6.1 NE 15 24 8 13 1016.2 1016.1 0.0
31/09:00am 27.0 26.9 16.0 51 6.8 NE 11 20 6 11 1016.6 1016.5 0.0
31/08:30am 25.9 26.2 17.0 58 5.5 NNE 11 19 6 10 1016.5 1016.4 0.0
31/08:00am 24.1 24.9 18.1 69 3.8 ENE 11 17 6 9 1016.4 1016.3 0.0
31/07:30am 24.5 26.6 18.9 71 3.6 E 6 11 3 6 1016.3 1016.2 0.0
31/07:00am 21.5 24.6 18.7 84 1.8 CALM 0 0 0 0 1016.2 1016.1 0.0
31/06:30am 18.5 21.0 17.2 92 0.8 CALM 0 0 0 0 1015.9 1015.8 0.0
31/06:00am 16.4 17.4 15.4 94 0.6 ESE 4 7 2 4 1015.7 1015.6 0.0
31/05:30am 14.9 16.1 13.8 93 0.6 CALM 0 0 0 0 1015.2 1015.1 0.0
31/05:00am 14.7 15.8 13.4 92 0.7 CALM 0 0 0 0 1014.9 1014.8 0.0
31/04:50am 15.1 16.4 14.0 93 0.6 CALM 0 0 0 0 1014.7 1014.6 0.0
31/04:38am 14.8 15.9 13.5 92 0.7 CALM 0 0 0 0 1014.5 1014.4 0.0
31/04:30am 14.8 15.9 13.5 92 0.7 CALM 0 0 0 0 1014.5 1014.4 0.0
31/04:00am 15.9 17.5 14.8 93 0.6 CALM 0 0 0 0 1014.6 1014.5 0.0
31/03:30am 16.0 17.2 15.0 94 0.6 SSW 2 6 1 3 1014.5 1014.4 0.0
31/03:28am 16.2 17.5 15.2 94 0.6 SSW 2 6 1 3 1014.5 1014.4 0.0
31/03:10am 16.2 16.6 15.2 94 0.6 SW 7 9 4 5 1014.4 1014.3 0.0
31/03:00am 15.2 16.4 13.7 91 0.8 CALM 0 0 0 0 1014.2 1014.1 0.0
31/02:30am 16.1 17.8 15.1 94 0.6 CALM 0 0 0 0 1014.3 1014.2 0.0
31/02:00am 15.8 17.2 14.5 92 0.7 CALM 0 0 0 0 1014.3 1014.2 0.0
31/01:30am 16.1 17.7 14.8 92 0.7 CALM 0 7 0 4 1014.8 1014.7 0.0
31/01:00am 15.9 17.3 14.4 91 0.9 CALM 0 0 0 0 1014.7 1014.6 0.0
31/12:36am 16.7 18.5 15.4 92 0.8 CALM 0 0 0 0 1015.2 1015.1 0.0
31/12:30am 17.0 19.0 15.9 93 0.6 CALM 0 0 0 0 1015.3 1015.2 0.0
31/12:22am 16.6 18.3 15.3 92 0.8 CALM 0 0 0 0 1015.3 1015.2 0.0
31/12:00am 17.5 19.2 16.2 92 0.8 S 2 7 1 4 1015.5 1015.4 0.0
 
Date/Time
EST
Temp
°C
App
Temp
°C
Dew
Point
Rel
Hum
%
Delta-T
°C
Wind Press
QNH
hPa
Press
MSL
hPa
Rain
since 9 am
mm
Dir
 
Spd
km/h
Gust
km/h
Spd
kts
Gust
kts
30/11:30pm 17.9 19.0 16.6 92 0.8 SW 6 7 3 4 1015.3 1015.2 0.0
30/11:00pm 17.4 19.3 15.7 90 1.0 CALM 0 0 0 0 1015.1 1015.0 0.0
30/10:30pm 17.7 19.7 16.0 90 1.0 CALM 0 0 0 0 1015.3 1015.2 0.0
30/10:00pm 18.6 20.8 16.6 88 1.2 CALM 0 0 0 0 1015.7 1015.6 0.0
30/09:30pm 18.9 21.2 16.7 87 1.3 E 0 0 0 0 1015.6 1015.5 0.0
30/09:00pm 20.3 23.3 18.4 89 1.2 CALM 0 6 0 3 1015.6 1015.5 0.0
30/08:30pm 20.2 22.5 17.6 85 1.6 NNE 2 6 1 3 1015.2 1015.1 0.0
30/08:00pm 20.9 23.0 18.1 84 1.7 N 4 6 2 3 1014.9 1014.8 0.0
30/07:30pm 21.6 23.4 18.2 81 2.1 N 6 7 3 4 1014.7 1014.6 0.0
30/07:00pm 22.3 24.3 18.7 80 2.3 N 6 7 3 4 1014.5 1014.4 0.0
30/06:30pm 23.2 24.7 18.9 77 2.7 NE 9 15 5 8 1014.3 1014.2 0.0
30/06:00pm 24.0 24.8 19.1 74 3.1 NE 13 19 7 10 1014.0 1013.9 0.0
30/05:30pm 24.8 25.2 19.0 70 3.7 NNE 15 20 8 11 1013.6 1013.5 0.0
30/05:00pm 25.8 26.0 18.5 64 4.6 NNE 15 22 8 12 1013.2 1013.1 0.0
30/04:30pm 26.2 26.2 18.1 61 5.1 NNE 15 24 8 13 1012.8 1012.7 0.0
30/04:00pm 27.4 27.3 18.7 59 5.6 NNE 17 24 9 13 1012.7 1012.6 0.0
30/03:30pm 27.5 26.4 17.4 54 6.4 NE 19 24 10 13 1012.6 1012.5 0.0
30/03:00pm 28.5 28.2 18.3 54 6.5 NNE 17 24 9 13 1012.7 1012.6 0.0
30/02:30pm 28.0 27.4 17.5 52 6.6 NNE 17 26 9 14 1012.9 1012.8 0.0
30/02:00pm 28.9 29.0 18.4 53 6.7 NE 15 26 8 14 1013.1 1013.0 0.0
30/01:30pm 28.8 28.4 18.0 52 6.9 NNE 17 30 9 16 1013.4 1013.3 0.0
30/01:00pm 29.2 28.3 17.7 50 7.3 NNE 19 28 10 15 1013.7 1013.6 0.0
30/12:30pm 29.4 28.4 17.9 50 7.3 N 20 33 11 18 1014.1 1014.0 0.0
30/12:00pm 28.9 27.7 17.1 49 7.4 ENE 19 26 10 14 1014.6 1014.5 0.0
30/11:30am 28.6 27.6 16.5 48 7.5 N 17 24 9 13 1014.8 1014.7 0.0
30/11:00am 29.0 28.2 16.2 46 7.9 NE 15 22 8 12 1014.9 1014.8 0.0
30/10:30am 28.5 27.6 15.8 46 7.8 NNE 15 22 8 12 1015.0 1014.9 0.0
30/10:00am 28.9 28.1 15.1 43 8.4 NE 13 20 7 11 1015.3 1015.2 0.0
30/09:30am 28.3 28.7 16.2 47 7.5 NE 9 19 5 10 1015.6 1015.5 0.0
30/09:00am 28.1 28.9 18.2 55 6.3 ENE 11 17 6 9 1015.9 1015.8 0.0
30/08:30am 26.9 27.8 18.5 60 5.4 NE 11 15 6 8 1016.2 1016.1 0.0
30/08:00am 25.3 26.2 19.2 69 3.9 NE 13 20 7 11 1016.4 1016.3 0.0
30/07:30am 23.7 27.5 20.2 81 2.3 CALM 0 6 0 3 1016.7 1016.6 0.0
30/07:00am 21.3 24.7 19.4 89 1.2 CALM 0 0 0 0 1016.6 1016.5 0.0
30/06:46am 20.2 23.5 19.0 93 0.8 CALM 0 0 0 0 1016.6 1016.5 0.0
30/06:35am 19.1 22.0 18.1 94 0.6 CALM 0 2 0 1 1016.6 1016.5 0.0
30/06:30am 18.7 21.4 17.7 94 0.6 CALM 0 2 0 1 1016.5 1016.4 0.0
30/06:18am 18.0 20.5 17.2 95 0.5 CALM 0 0 0 0 1016.6 1016.5 0.0
30/06:00am 17.3 19.5 16.5 95 0.5 CALM 0 0 0 0 1016.4 1016.3 0.0
30/05:30am 16.3 18.0 15.3 94 0.6 CALM 0 0 0 0 1015.9 1015.8 0.0
30/05:00am 16.1 17.8 15.1 94 0.6 CALM 0 0 0 0 1015.5 1015.4 0.0
30/04:30am 16.2 17.9 15.1 93 0.6 CALM 0 0 0 0 1015.0 1014.9 0.0
30/04:00am 16.0 17.4 14.5 91 0.9 CALM 0 0 0 0 1014.6 1014.5 0.0
30/03:30am 16.1 17.6 14.6 91 0.9 CALM 0 0 0 0 1014.2 1014.1 0.0
30/03:22am 16.3 18.0 15.2 93 0.6 CALM 0 4 0 2 1014.2 1014.1 0.0
30/03:13am 16.7 18.2 15.6 93 0.6 SW 2 7 1 4 1014.1 1014.0 0.0
30/03:12am 16.9 18.5 15.9 94 0.6 WSW 2 7 1 4 1014.1 1014.0 0.0
30/03:00am 16.9 18.8 15.8 93 0.6 CALM 0 0 0 0 1013.9 1013.8 0.0
30/02:30am 17.3 18.6 16.2 93 0.7 SW 4 7 2 4 1013.6 1013.5 0.0
30/02:00am 17.1 18.9 15.6 91 0.9 CALM 0 0 0 0 1013.4 1013.3 0.0
30/01:57am 17.2 19.1 15.7 91 0.9 CALM 0 0 0 0 1013.5 1013.4 0.0
30/01:30am 17.7 19.8 16.2 91 0.9 CALM 0 0 0 0 1013.6 1013.5 0.0
30/01:20am 18.0 20.3 16.7 92 0.8 CALM 0 0 0 0 1013.7 1013.6 0.0
30/01:14am 18.4 20.9 17.2 93 0.7 CALM 0 0 0 0 1013.8 1013.7 0.0
30/01:00am 18.3 20.7 17.0 92 0.8 CALM 0 0 0 0 1013.8 1013.7 0.0
30/12:53am 18.3 20.6 16.8 91 0.9 CALM 0 0 0 0 1013.8 1013.7 0.0
30/12:38am 18.2 19.3 16.5 90 1.0 SSE 6 7 3 4 1014.0 1013.9 0.0
30/12:30am 18.6 20.4 17.3 92 0.8 NNE 4 7 2 4 1014.0 1013.9 0.0
30/12:14am 18.8 20.9 17.1 90 1.0 N 2 6 1 3 1014.0 1013.9 0.0
30/12:00am 18.7 19.9 16.8 89 1.1 NNE 6 7 3 4 1014.0 1013.9 0.0
 
Date/Time
EST
Temp
°C
App
Temp
°C
Dew
Point
Rel
Hum
%
Delta-T
°C
Wind Press
QNH
hPa
Press
MSL
hPa
Rain
since 9 am
mm
Dir
 
Spd
km/h
Gust
km/h
Spd
kts
Gust
kts
29/11:30pm 19.0 20.3 17.1 89 1.2 N 6 6 3 3 1014.3 1014.2 0.0
29/11:26pm 19.1 20.8 17.2 89 1.2 N 4 6 2 3 1014.3 1014.2 0.0
29/11:09pm 19.4 22.0 17.5 89 1.2 CALM 0 2 0 1 1014.3 1014.2 0.0
29/11:04pm 19.7 22.4 17.7 88 1.2 CALM 0 0 0 0 1014.4 1014.3 0.0
29/11:00pm 19.8 22.5 17.8 88 1.2 CALM 0 0 0 0 1014.4 1014.3 0.0
29/10:44pm 20.0 21.7 18.0 88 1.2 N 6 6 3 3 1014.5 1014.4 0.0
29/10:30pm 20.4 23.3 18.2 87 1.4 CALM 0 2 0 1 1014.4 1014.3 0.0
29/10:00pm 21.7 24.1 19.6 88 1.3 N 6 9 3 5 1014.2 1014.1 0.0
29/09:30pm 22.4 24.5 20.1 87 1.5 WNW 9 11 5 6 1014.1 1014.0 0.0
29/09:00pm 22.6 24.8 20.3 87 1.5 NW 9 13 5 7 1014.0 1013.9 0.0
29/08:30pm 22.7 24.9 20.4 87 1.5 NW 9 15 5 8 1013.8 1013.7 0.0
29/08:00pm 22.7 25.0 19.9 84 1.8 NNW 7 9 4 5 1013.7 1013.6 0.0
29/07:30pm 23.1 25.3 19.5 80 2.3 N 7 11 4 6 1013.3 1013.2 0.0
29/07:00pm 23.9 26.1 19.6 77 2.8 N 7 13 4 7 1012.9 1012.8 0.0
29/06:30pm 24.7 26.7 20.0 75 3.0 NNW 9 15 5 8 1012.6 1012.5 0.0
29/06:00pm 25.6 26.6 19.5 69 3.9 NNW 13 20 7 11 1012.3 1012.2 0.0
29/05:30pm 27.0 27.8 19.1 62 5.1 NNW 13 20 7 11 1012.0 1011.9 0.0
29/05:00pm 28.2 27.4 17.1 51 7.0 NNW 17 24 9 13 1011.7 1011.6 0.0
29/04:30pm 29.0 27.8 16.2 46 7.9 NNW 17 20 9 11 1011.5 1011.4 0.0
29/04:00pm 29.4 28.1 15.9 44 8.4 N 17 24 9 13 1011.3 1011.2 0.0
29/03:30pm 30.2 28.2 13.9 37 9.8 N 17 24 9 13 1011.3 1011.2 0.0
29/03:00pm 30.4 28.0 14.5 38 9.7 N 20 28 11 15 1011.4 1011.3 0.0
29/02:30pm 31.0 29.5 16.2 41 9.3 N 19 28 10 15 1011.4 1011.3 0.0
29/02:00pm 32.3 31.9 18.8 44 8.8 N 19 28 10 15 1011.5 1011.4 0.0
29/01:30pm 30.8 30.2 18.5 47 7.9 NNW 19 28 10 15 1011.6 1011.5 0.0
29/01:00pm 31.2 31.5 19.5 49 7.7 N 17 26 9 14 1011.8 1011.7 0.0
29/12:30pm 30.4 30.2 19.7 52 7.0 N 20 28 11 15 1012.0 1011.9 0.0
29/12:00pm 29.8 29.8 20.1 56 6.4 N 20 33 11 18 1012.4 1012.3 0.0
29/11:30am 30.4 30.8 20.9 57 6.3 N 20 28 11 15 1012.8 1012.7 0.0
29/11:00am 30.2 30.5 20.4 55 6.5 N 19 26 10 14 1012.9 1012.8 0.0
29/10:30am 30.1 31.2 20.4 56 6.4 NNW 15 24 8 13 1013.3 1013.2 0.0
29/10:00am 28.8 29.3 20.0 59 5.8 NNW 17 24 9 13 1013.7 1013.6 0.0
29/09:30am 28.4 29.5 19.6 59 5.7 NNW 13 24 7 13 1014.1 1014.0 0.0
29/09:00am 27.9 28.9 19.4 60 5.5 NNW 13 24 7 13 1014.3 1014.2 0.0
29/08:30am 27.0 27.1 19.1 62 5.1 NNW 17 24 9 13 1014.4 1014.3 0.0
29/08:00am 26.1 27.1 19.5 67 4.3 NW 13 22 7 12 1014.2 1014.1 0.0
29/07:30am 24.3 26.5 20.4 79 2.5 NNW 9 19 5 10 1014.2 1014.1 0.0
29/07:00am 21.6 25.4 20.2 92 0.9 CALM 0 0 0 0 1014.0 1013.9 0.0
29/06:30am 20.0 22.8 18.8 93 0.8 NW 2 7 1 4 1013.6 1013.5 0.0
29/06:27am 20.0 22.8 18.8 93 0.8 NW 2 7 1 4 1013.6 1013.5 0.0
29/06:11am 19.7 22.3 18.5 93 0.7 NW 2 6 1 3 1013.7 1013.6 0.0
29/06:00am 20.0 22.0 18.8 93 0.8 WNW 6 7 3 4 1013.8 1013.7 0.0
29/05:30am 20.0 23.2 18.8 93 0.8 CALM 0 0 0 0 1013.7 1013.6 0.0
29/05:00am 20.1 22.2 18.9 93 0.8 ESE 6 9 3 5 1013.3 1013.2 0.0
29/04:30am 20.2 22.3 18.9 92 0.8 SSE 6 7 3 4 1013.1 1013.0 0.0
29/04:04am 20.5 23.5 19.2 92 0.8 SW 2 7 1 4 1012.7 1012.6 0.0
29/04:00am 20.7 23.4 19.4 92 0.8 SW 4 9 2 5 1012.6 1012.5 0.0
29/03:48am 20.5 23.7 18.8 90 1.1 CALM 0 0 0 0 1012.3 1012.2 0.0
29/03:30am 20.8 23.6 18.9 89 1.2 N 2 7 1 4 1011.9 1011.8 0.0
29/03:00am 21.5 24.4 19.8 90 1.1 N 4 9 2 5 1011.6 1011.5 0.0
29/02:30am 21.7 23.4 20.2 91 1.0 NNW 11 20 6 11 1011.5 1011.4 0.0
29/02:00am 21.4 22.5 19.7 90 1.1 NNW 13 20 7 11 1012.0 1011.9 0.0
29/01:30am 21.1 22.0 19.2 89 1.2 NNW 13 19 7 10 1012.6 1012.5 0.0
29/01:00am 20.6 22.4 18.7 89 1.2 NW 7 15 4 8 1012.9 1012.8 0.0
29/12:30am 20.6 22.5 18.9 90 1.1 NW 7 9 4 5 1013.4 1013.3 0.0
29/12:00am 20.7 22.7 19.2 91 0.9 WNW 7 9 4 5 1013.2 1013.1 0.0
 
Date/Time
EST
Temp
°C
App
Temp
°C
Dew
Point
Rel
Hum
%
Delta-T
°C
Wind Press
QNH
hPa
Press
MSL
hPa
Rain
since 9 am
mm
Dir
 
Spd
km/h
Gust
km/h
Spd
kts
Gust
kts
28/11:30pm 20.8 23.3 19.1 90 1.1 NW 4 9 2 5 1013.4 1013.3 0.0
28/11:00pm 20.9 22.4 19.0 89 1.2 N 9 17 5 9 1013.7 1013.6 0.0
28/10:30pm 21.0 23.1 18.9 88 1.3 NW 6 15 3 8 1014.4 1014.3 0.0
28/10:00pm 22.0 23.9 19.0 83 1.9 S 7 9 4 5 1014.6 1014.5 0.0
28/09:48pm 22.6 23.9 19.4 82 2.0 SW 11 20 6 11 1015.0 1014.9 0.0
28/09:30pm 22.7 24.2 19.7 83 1.9 NW 11 20 6 11 1014.3 1014.2 0.0
28/09:21pm 22.7 22.8 20.0 85 1.7 SSW 19 26 10 14 1015.3 1015.2 0.0
28/09:00pm 22.2 23.4 19.9 87 1.5 NNW 13 20 7 11 1013.2 1013.1 0.0
28/08:30pm 22.2 24.1 19.7 86 1.6 NNW 9 17 5 9 1013.0 1012.9 0.0
28/08:00pm 22.4 24.3 19.8 85 1.7 NNW 9 15 5 8 1012.8 1012.7 0.0
28/07:30pm 22.8 24.4 20.0 84 1.8 NNW 11 19 6 10 1012.4 1012.3 0.0
28/07:00pm 23.2 24.4 20.0 82 2.1 NNW 13 20 7 11 1012.0 1011.9 0.0
28/06:30pm 23.6 24.8 19.9 80 2.4 NNW 13 24 7 13 1011.6 1011.5 0.0
28/06:00pm 24.5 24.5 18.9 71 3.6 NNW 17 24 9 13 1011.4 1011.3 0.0
28/05:30pm 25.9 24.7 16.2 55 6.0 NNW 17 26 9 14 1011.0 1010.9 0.0

Other Formats:

Comma delimited format used in spreadsheet applications
http://www.bom.gov.au/fwo/IDQ60801/IDQ60801.94370.axf

JavaScript Object Notation format (JSON) in row-major order
http://www.bom.gov.au/fwo/IDQ60801/IDQ60801.94370.json